PWSweather.com
Personal Weather Stations
Station Observations
01979
Ravne Pri CerknemSI 5282

Ravne Pri CerknemSI 5282

Lat: 46.1213916, Lon: 13.952774299999987

Elevation: 2244.094488

Station Type: Techo Line WS2307

www.vremenska.postaja.andre.si/

High Low Average
Temperature 34.0°F1.1°F 24.6°F-4.1°F 27.1°F-2.7°F
Dew Point 26.2°F-3.2°F 21.3°F-5.9°F 23.2°F-4.9°F
Winds 10.9 mph SSW17.5 mph SSW Calm Calm 1.2 mph 1.9 mph
Wind Gusts 16.8 mph27.0 mph -- 3.3 mph5.3 mph
Humidity 90% 73% 85%
Pressure 29.95 in1014.20 in 29.84 in1010.50 in -
Precipitation 0.22 in5.60 in - -
Hour Temp Dew Point Humidity Winds Wind Gusts Pressure Precip Precip Rate Daily Precip Total
12:00 AM 24.6°F-4.1°C 21.3°F-5.9°C 87% 1.1 mph NW1.8 kmh NW 3.6 mph5.8 kmh 29.95 in1014.2 mb 0.00 in0.0 mm 0.00 in0.0 mm 0.00 in0.0 mm
12:10 AM 24.6°F-4.1°C 21.3°F-5.9°C 87% Calm Calm -- 29.95 in1014.2 mb 0.00 in0.0 mm 0.00 in0.0 mm 0.00 in0.0 mm
12:20 AM 24.6°F-4.1°C 21.3°F-5.9°C 87% Calm Calm -- 29.95 in1014.2 mb 0.00 in0.0 mm 0.00 in0.0 mm 0.00 in0.0 mm
12:30 AM 24.6°F-4.1°C 21.3°F-5.9°C 87% 0.4 mph WNW0.6 kmh WNW 1.8 mph2.9 kmh 29.95 in1014.2 mb 0.00 in0.0 mm 0.00 in0.0 mm 0.00 in0.0 mm
12:40 AM 24.8°F-4.0°C 21.5°F-5.8°C 87% 1.6 mph S2.6 kmh S 4.3 mph6.9 kmh 29.93 in1013.5 mb 0.00 in0.0 mm 0.00 in0.0 mm 0.00 in0.0 mm
12:50 AM 24.6°F-4.1°C 21.3°F-5.9°C 87% 4.6 mph S7.4 kmh S 9.8 mph15.8 kmh 29.93 in1013.5 mb 0.00 in0.0 mm 0.00 in0.0 mm 0.00 in0.0 mm
01:00 AM 24.6°F-4.1°C 21.3°F-5.9°C 87% Calm Calm -- 29.93 in1013.5 mb 0.00 in0.0 mm 0.00 in0.0 mm 0.00 in0.0 mm
01:10 AM 24.6°F-4.1°C 21.3°F-5.9°C 87% 0.5 mph NNW0.8 kmh NNW 2.5 mph4.0 kmh 29.93 in1013.5 mb 0.00 in0.0 mm 0.00 in0.0 mm 0.00 in0.0 mm
01:20 AM 25.0°F-3.9°C 21.7°F-5.7°C 87% 1.2 mph NE1.9 kmh NE 5.6 mph9.0 kmh 29.93 in1013.5 mb 0.00 in0.0 mm 0.00 in0.0 mm 0.00 in0.0 mm
01:30 AM 25.0°F-3.9°C 21.7°F-5.7°C 87% Calm Calm -- 29.92 in1013.2 mb 0.00 in0.0 mm 0.00 in0.0 mm 0.00 in0.0 mm
01:40 AM 25.0°F-3.9°C 21.7°F-5.7°C 87% Calm Calm -- 29.92 in1013.2 mb 0.00 in0.0 mm 0.00 in0.0 mm 0.00 in0.0 mm
01:50 AM 25.0°F-3.9°C 21.7°F-5.7°C 87% Calm Calm -- 29.91 in1012.9 mb 0.00 in0.0 mm 0.00 in0.0 mm 0.00 in0.0 mm
02:00 AM 25.2°F-3.8°C 21.8°F-5.7°C 87% Calm Calm -- 29.92 in1013.2 mb 0.00 in0.0 mm 0.00 in0.0 mm 0.00 in0.0 mm
02:02 AM 25.0°F-3.9°C 21.7°F-5.7°C 87% Calm Calm -- 29.92 in1013.2 mb 0.00 in0.0 mm 0.00 in0.0 mm 0.00 in0.0 mm
02:10 AM 25.0°F-3.9°C 21.7°F-5.7°C 87% Calm Calm -- 29.91 in1012.9 mb 0.00 in0.0 mm 0.00 in0.0 mm 0.00 in0.0 mm
02:20 AM 25.0°F-3.9°C 21.7°F-5.7°C 87% Calm Calm -- 29.91 in1012.9 mb 0.00 in0.0 mm 0.00 in0.0 mm 0.00 in0.0 mm
02:30 AM 24.6°F-4.1°C 21.3°F-5.9°C 87% Calm Calm -- 29.91 in1012.9 mb 0.00 in0.0 mm 0.00 in0.0 mm 0.00 in0.0 mm
02:40 AM 25.0°F-3.9°C 21.7°F-5.7°C 87% Calm Calm -- 29.90 in1012.5 mb 0.00 in0.0 mm 0.00 in0.0 mm 0.00 in0.0 mm
02:50 AM 25.0°F-3.9°C 21.7°F-5.7°C 87% 0.7 mph SW1.1 kmh SW 3.1 mph5.0 kmh 29.90 in1012.5 mb 0.00 in0.0 mm 0.00 in0.0 mm 0.00 in0.0 mm
03:00 AM 25.0°F-3.9°C 21.7°F-5.7°C 87% Calm Calm -- 29.90 in1012.5 mb 0.00 in0.0 mm 0.00 in0.0 mm 0.00 in0.0 mm
03:10 AM 25.2°F-3.8°C 21.8°F-5.7°C 87% 0.1 mph NNE0.2 kmh NNE 0.7 mph1.1 kmh 29.89 in1012.2 mb 0.00 in0.0 mm 0.00 in0.0 mm 0.00 in0.0 mm
03:20 AM 25.2°F-3.8°C 21.8°F-5.7°C 87% 0.1 mph NNE0.2 kmh NNE 0.7 mph1.1 kmh 29.89 in1012.2 mb 0.00 in0.0 mm 0.00 in0.0 mm 0.00 in0.0 mm
03:30 AM 25.2°F-3.8°C 21.8°F-5.7°C 87% 1.4 mph SSW2.3 kmh SSW 3.6 mph5.8 kmh 29.90 in1012.5 mb 0.00 in0.0 mm 0.00 in0.0 mm 0.00 in0.0 mm
03:40 AM 25.3°F-3.7°C 22.0°F-5.6°C 87% Calm Calm -- 29.89 in1012.2 mb 0.00 in0.0 mm 0.00 in0.0 mm 0.00 in0.0 mm
03:50 AM 25.3°F-3.7°C 22.0°F-5.6°C 87% 0.5 mph SW0.8 kmh SW 2.5 mph4.0 kmh 29.89 in1012.2 mb 0.00 in0.0 mm 0.00 in0.0 mm 0.00 in0.0 mm
04:00 AM 25.2°F-3.8°C 21.8°F-5.7°C 87% 2.8 mph SSW4.5 kmh SSW 5.6 mph9.0 kmh 29.89 in1012.2 mb 0.00 in0.0 mm 0.00 in0.0 mm 0.00 in0.0 mm
04:10 AM 25.0°F-3.9°C 21.7°F-5.7°C 87% Calm Calm -- 29.89 in1012.2 mb 0.00 in0.0 mm 0.00 in0.0 mm 0.00 in0.0 mm
04:20 AM 25.2°F-3.8°C 21.8°F-5.7°C 87% 1.5 mph S2.4 kmh S 3.8 mph6.1 kmh 29.89 in1012.2 mb 0.00 in0.0 mm 0.00 in0.0 mm 0.00 in0.0 mm
04:30 AM 25.3°F-3.7°C 22.0°F-5.6°C 87% Calm Calm -- 29.89 in1012.2 mb 0.00 in0.0 mm 0.00 in0.0 mm 0.00 in0.0 mm
04:40 AM 25.3°F-3.7°C 22.0°F-5.6°C 87% 0.5 mph S0.8 kmh S 2.5 mph4.0 kmh 29.88 in1011.9 mb 0.00 in0.0 mm 0.00 in0.0 mm 0.00 in0.0 mm
04:50 AM 25.3°F-3.7°C 22.0°F-5.6°C 87% Calm Calm -- 29.88 in1011.9 mb 0.00 in0.0 mm 0.00 in0.0 mm 0.00 in0.0 mm
05:00 AM 25.5°F-3.6°C 21.9°F-5.6°C 86% Calm Calm -- 29.88 in1011.9 mb 0.00 in0.0 mm 0.00 in0.0 mm 0.00 in0.0 mm
05:10 AM 25.5°F-3.6°C 21.6°F-5.8°C 85% 0.6 mph SSW1.0 kmh SSW 3.1 mph5.0 kmh 29.88 in1011.9 mb 0.00 in0.0 mm 0.00 in0.0 mm 0.00 in0.0 mm
05:20 AM 25.5°F-3.6°C 21.6°F-5.8°C 85% 0.5 mph SSW0.8 kmh SSW 1.6 mph2.6 kmh 29.87 in1011.5 mb 0.00 in0.0 mm 0.00 in0.0 mm 0.00 in0.0 mm
05:30 AM 25.3°F-3.7°C 21.7°F-5.7°C 86% 0.2 mph SSW0.3 kmh SSW 1.6 mph2.6 kmh 29.88 in1011.9 mb 0.00 in0.0 mm 0.00 in0.0 mm 0.00 in0.0 mm
05:40 AM 25.3°F-3.7°C 21.7°F-5.7°C 86% Calm Calm -- 29.87 in1011.5 mb 0.00 in0.0 mm 0.00 in0.0 mm 0.00 in0.0 mm
05:50 AM 25.2°F-3.8°C 21.6°F-5.8°C 86% Calm Calm -- 29.87 in1011.5 mb 0.00 in0.0 mm 0.00 in0.0 mm 0.00 in0.0 mm
06:00 AM 25.5°F-3.6°C 21.9°F-5.6°C 85% 2.0 mph SE3.2 kmh SE 3.4 mph5.5 kmh 29.87 in1011.5 mb 0.00 in0.0 mm 0.00 in0.0 mm 0.00 in0.0 mm
06:10 AM 25.2°F-3.8°C 21.6°F-5.8°C 86% 0.4 mph ESE0.6 kmh ESE 3.4 mph5.5 kmh 29.87 in1011.5 mb 0.00 in0.0 mm 0.00 in0.0 mm 0.00 in0.0 mm
06:20 AM 25.5°F-3.6°C 21.6°F-5.8°C 85% 1.1 mph SE1.8 kmh SE 3.1 mph5.0 kmh 29.87 in1011.5 mb 0.00 in0.0 mm 0.00 in0.0 mm 0.00 in0.0 mm
06:30 AM 25.3°F-3.7°C 21.5°F-5.8°C 85% 0.5 mph SSE0.8 kmh SSE 3.1 mph5.0 kmh 29.87 in1011.5 mb 0.00 in0.0 mm 0.00 in0.0 mm 0.00 in0.0 mm
06:40 AM 25.5°F-3.6°C 21.6°F-5.8°C 85% 1.0 mph S1.6 kmh S 2.7 mph4.3 kmh 29.87 in1011.5 mb 0.00 in0.0 mm 0.00 in0.0 mm 0.00 in0.0 mm
06:50 AM 25.2°F-3.8°C 21.3°F-5.9°C 85% 0.4 mph SSE0.6 kmh SSE 2.0 mph3.2 kmh 29.87 in1011.5 mb 0.00 in0.0 mm 0.00 in0.0 mm 0.00 in0.0 mm
07:00 AM 25.3°F-3.7°C 21.5°F-5.8°C 85% 0.7 mph SE1.1 kmh SE 2.2 mph3.5 kmh 29.87 in1011.5 mb 0.00 in0.0 mm 0.00 in0.0 mm 0.00 in0.0 mm
07:10 AM 25.3°F-3.7°C 21.5°F-5.8°C 85% 1.2 mph SSE1.9 kmh SSE 5.1 mph8.2 kmh 29.87 in1011.5 mb 0.00 in0.0 mm 0.00 in0.0 mm 0.00 in0.0 mm
07:20 AM 25.5°F-3.6°C 21.6°F-5.8°C 85% 0.3 mph SSE0.5 kmh SSE 5.1 mph8.2 kmh 29.87 in1011.5 mb 0.00 in0.0 mm 0.00 in0.0 mm 0.00 in0.0 mm
07:30 AM 25.5°F-3.6°C 21.6°F-5.8°C 85% 0.8 mph E1.3 kmh E 3.8 mph6.1 kmh 29.87 in1011.5 mb 0.00 in0.0 mm 0.00 in0.0 mm 0.00 in0.0 mm
07:40 AM 25.5°F-3.6°C 21.6°F-5.8°C 85% 0.4 mph ESE0.6 kmh ESE 2.2 mph3.5 kmh 29.87 in1011.5 mb 0.00 in0.0 mm 0.00 in0.0 mm 0.00 in0.0 mm
07:50 AM 25.5°F-3.6°C 21.6°F-5.8°C 85% 0.6 mph S1.0 kmh S 1.3 mph2.1 kmh 29.87 in1011.5 mb 0.00 in0.0 mm 0.00 in0.0 mm 0.00 in0.0 mm
08:00 AM 25.9°F-3.4°C 22.0°F-5.6°C 85% 1.0 mph ESE1.6 kmh ESE 2.7 mph4.3 kmh 29.87 in1011.5 mb 0.00 in0.0 mm 0.00 in0.0 mm 0.00 in0.0 mm
08:10 AM 26.1°F-3.3°C 22.2°F-5.4°C 85% Calm Calm -- 29.87 in1011.5 mb 0.00 in0.0 mm 0.00 in0.0 mm 0.00 in0.0 mm
08:20 AM 26.4°F-3.1°C 22.5°F-5.3°C 85% 0.7 mph SE1.1 kmh SE 1.6 mph2.6 kmh 29.87 in1011.5 mb 0.00 in0.0 mm 0.00 in0.0 mm 0.00 in0.0 mm
08:30 AM 26.6°F-3.0°C 22.4°F-5.3°C 84% 0.5 mph E0.8 kmh E 1.8 mph2.9 kmh 29.87 in1011.5 mb 0.00 in0.0 mm 0.00 in0.0 mm 0.00 in0.0 mm
08:40 AM 26.8°F-2.9°C 22.3°F-5.4°C 83% 0.8 mph E1.3 kmh E 2.2 mph3.5 kmh 29.87 in1011.5 mb 0.00 in0.0 mm 0.00 in0.0 mm 0.00 in0.0 mm
08:50 AM 27.0°F-2.8°C 22.5°F-5.3°C 83% 1.4 mph E2.3 kmh E 4.7 mph7.6 kmh 29.87 in1011.5 mb 0.00 in0.0 mm 0.00 in0.0 mm 0.00 in0.0 mm
09:00 AM 27.3°F-2.6°C 22.8°F-5.1°C 82% Calm Calm -- 29.87 in1011.5 mb 0.00 in0.0 mm 0.00 in0.0 mm 0.00 in0.0 mm
09:10 AM 27.5°F-2.5°C 22.7°F-5.2°C 82% 0.5 mph ENE0.8 kmh ENE 2.5 mph4.0 kmh 29.87 in1011.5 mb 0.00 in0.0 mm 0.00 in0.0 mm 0.00 in0.0 mm
09:20 AM 27.5°F-2.5°C 22.7°F-5.2°C 82% Calm Calm -- 29.87 in1011.5 mb 0.00 in0.0 mm 0.00 in0.0 mm 0.00 in0.0 mm
09:30 AM 27.7°F-2.4°C 22.9°F-5.1°C 82% 0.8 mph E1.3 kmh E 3.6 mph5.8 kmh 29.87 in1011.5 mb 0.00 in0.0 mm 0.00 in0.0 mm 0.00 in0.0 mm
09:40 AM 28.0°F-2.2°C 23.0°F-5.0°C 81% Calm Calm -- 29.87 in1011.5 mb 0.00 in0.0 mm 0.00 in0.0 mm 0.00 in0.0 mm
09:50 AM 28.2°F-2.1°C 23.1°F-4.9°C 81% Calm Calm -- 29.87 in1011.5 mb 0.00 in0.0 mm 0.00 in0.0 mm 0.00 in0.0 mm
10:00 AM 28.2°F-2.1°C 23.1°F-4.9°C 81% 0.4 mph SSE0.6 kmh SSE 1.8 mph2.9 kmh 29.87 in1011.5 mb 0.00 in0.0 mm 0.00 in0.0 mm 0.00 in0.0 mm
10:10 AM 28.6°F-1.9°C 23.5°F-4.7°C 81% 1.6 mph SSE2.6 kmh SSE 5.1 mph8.2 kmh 29.87 in1011.5 mb 0.00 in0.0 mm 0.00 in0.0 mm 0.00 in0.0 mm
10:20 AM 28.9°F-1.7°C 23.5°F-4.7°C 80% 3.4 mph NNE5.5 kmh NNE 6.3 mph10.1 kmh 29.87 in1011.5 mb 0.00 in0.0 mm 0.00 in0.0 mm 0.00 in0.0 mm
10:30 AM 29.1°F-1.6°C 23.7°F-4.6°C 80% 1.0 mph SSE1.6 kmh SSE 4.7 mph7.6 kmh 29.86 in1011.2 mb 0.00 in0.0 mm 0.00 in0.0 mm 0.00 in0.0 mm
10:40 AM 29.1°F-1.6°C 24.0°F-4.4°C 81% Calm Calm -- 29.87 in1011.5 mb 0.00 in0.0 mm 0.00 in0.0 mm 0.00 in0.0 mm
10:50 AM 29.3°F-1.5°C 24.2°F-4.3°C 81% 2.6 mph ESE4.2 kmh ESE 2.7 mph4.3 kmh 29.86 in1011.2 mb 0.00 in0.0 mm 0.00 in0.0 mm 0.00 in0.0 mm
11:00 AM 29.1°F-1.6°C 24.0°F-4.4°C 81% 1.2 mph SE1.9 kmh SE 4.0 mph6.4 kmh 29.86 in1011.2 mb 0.00 in0.0 mm 0.00 in0.0 mm 0.00 in0.0 mm
11:10 AM 29.7°F-1.3°C 24.2°F-4.3°C 80% 0.9 mph E1.4 kmh E 4.3 mph6.9 kmh 29.86 in1011.2 mb 0.00 in0.0 mm 0.00 in0.0 mm 0.00 in0.0 mm
11:20 AM 30.0°F-1.1°C 24.6°F-4.1°C 80% 1.8 mph SSE2.9 kmh SSE 5.1 mph8.2 kmh 29.86 in1011.2 mb 0.00 in0.0 mm 0.00 in0.0 mm 0.00 in0.0 mm
11:30 AM 30.7°F-0.7°C 25.6°F-3.6°C 81% 1.6 mph SSE2.6 kmh SSE 6.0 mph9.7 kmh 29.85 in1010.8 mb 0.00 in0.0 mm 0.00 in0.0 mm 0.00 in0.0 mm
11:40 AM 32.4°F0.2°C 26.0°F-3.3°C 77% 2.0 mph S3.2 kmh S 6.0 mph9.7 kmh 29.85 in1010.8 mb 0.00 in0.0 mm 0.00 in0.0 mm 0.00 in0.0 mm
11:50 AM 33.1°F0.6°C 25.7°F-3.5°C 74% 4.2 mph S6.8 kmh S 6.5 mph10.5 kmh 29.86 in1011.2 mb 0.02 in0.5 mm 0.12 in3.0 mm 0.02 in0.5 mm
12:00 PM 32.9°F0.5°C 25.5°F-3.6°C 74% 5.3 mph S8.5 kmh S 10.1 mph16.3 kmh 29.85 in1010.8 mb 0.04 in1.0 mm 0.02 in0.5 mm 0.04 in1.0 mm
12:10 PM 33.1°F0.6°C 25.7°F-3.5°C 74% 9.1 mph S14.6 kmh S 13.6 mph21.9 kmh 29.85 in1010.8 mb 0.04 in1.0 mm 0.00 in0.0 mm 0.04 in1.0 mm
12:20 PM 34.0°F1.1°C 26.2°F-3.2°C 73% 0.5 mph NW0.8 kmh NW 3.6 mph5.8 kmh 29.85 in1010.8 mb 0.04 in1.0 mm 0.00 in0.0 mm 0.04 in1.0 mm
12:30 PM 32.9°F0.5°C 25.8°F-3.4°C 75% 1.5 mph WNW2.4 kmh WNW 3.6 mph5.8 kmh 29.85 in1010.8 mb 0.04 in1.0 mm 0.00 in0.0 mm 0.04 in1.0 mm
12:40 PM 33.3°F0.7°C 26.2°F-3.2°C 75% 0.2 mph NE0.3 kmh NE 1.1 mph1.8 kmh 29.85 in1010.8 mb 0.04 in1.0 mm 0.00 in0.0 mm 0.04 in1.0 mm
05:30 PM 29.8°F-1.2°C 25.0°F-3.9°C 82% 4.8 mph NE7.7 kmh NE 7.6 mph12.2 kmh 29.84 in1010.5 mb 0.00 in0.0 mm 0.00 in0.0 mm 0.06 in1.5 mm
05:40 PM 29.5°F-1.4°C 25.0°F-3.9°C 83% 0.5 mph NNW0.8 kmh NNW 7.6 mph12.2 kmh 29.84 in1010.5 mb 0.00 in0.0 mm 0.00 in0.0 mm 0.06 in1.5 mm
05:50 PM 29.1°F-1.6°C 24.6°F-4.1°C 83% Calm Calm -- 29.84 in1010.5 mb 0.00 in0.0 mm 0.00 in0.0 mm 0.06 in1.5 mm
06:00 PM 29.1°F-1.6°C 24.6°F-4.1°C 83% 0.3 mph SW0.5 kmh SW 1.3 mph2.1 kmh 29.84 in1010.5 mb 0.00 in0.0 mm 0.00 in0.0 mm 0.06 in1.5 mm
06:10 PM 29.1°F-1.6°C 24.6°F-4.1°C 83% 0.4 mph ENE0.6 kmh ENE 2.2 mph3.5 kmh 29.84 in1010.5 mb 0.00 in0.0 mm 0.00 in0.0 mm 0.06 in1.5 mm
06:20 PM 29.1°F-1.6°C 24.9°F-3.9°C 84% Calm Calm -- 29.84 in1010.5 mb 0.00 in0.0 mm 0.00 in0.0 mm 0.06 in1.5 mm
06:30 PM 28.9°F-1.7°C 24.7°F-4.1°C 84% Calm Calm -- 29.84 in1010.5 mb 0.00 in0.0 mm 0.00 in0.0 mm 0.06 in1.5 mm
06:40 PM 28.8°F-1.8°C 24.8°F-4.0°C 85% Calm Calm -- 29.84 in1010.5 mb 0.00 in0.0 mm 0.00 in0.0 mm 0.06 in1.5 mm
06:50 PM 28.8°F-1.8°C 24.8°F-4.0°C 85% Calm Calm -- 29.84 in1010.5 mb 0.00 in0.0 mm 0.00 in0.0 mm 0.06 in1.5 mm
07:00 PM 28.8°F-1.8°C 24.8°F-4.0°C 85% 1.0 mph ENE1.6 kmh ENE 4.5 mph7.2 kmh 29.84 in1010.5 mb 0.00 in0.0 mm 0.00 in0.0 mm 0.06 in1.5 mm
07:10 PM 28.6°F-1.9°C 24.9°F-3.9°C 86% 2.5 mph SW4.0 kmh SW 5.4 mph8.7 kmh 29.84 in1010.5 mb 0.00 in0.0 mm 0.00 in0.0 mm 0.06 in1.5 mm
07:20 PM 28.6°F-1.9°C 24.9°F-3.9°C 86% 1.9 mph SSW3.1 kmh SSW 6.5 mph10.5 kmh 29.84 in1010.5 mb 0.00 in0.0 mm 0.00 in0.0 mm 0.06 in1.5 mm
07:30 PM 28.6°F-1.9°C 24.9°F-3.9°C 86% 3.0 mph S4.8 kmh S 8.9 mph14.3 kmh 29.84 in1010.5 mb 0.00 in0.0 mm 0.00 in0.0 mm 0.06 in1.5 mm
07:40 PM 28.6°F-1.9°C 24.9°F-3.9°C 86% 7.4 mph S11.9 kmh S 9.8 mph15.8 kmh 29.85 in1010.8 mb 0.00 in0.0 mm 0.00 in0.0 mm 0.06 in1.5 mm
07:50 PM 28.6°F-1.9°C 24.9°F-3.9°C 86% 0.7 mph ENE1.1 kmh ENE 5.1 mph8.2 kmh 29.85 in1010.8 mb 0.00 in0.0 mm 0.00 in0.0 mm 0.06 in1.5 mm
08:00 PM 28.2°F-2.1°C 24.6°F-4.1°C 86% 0.3 mph NE0.5 kmh NE 1.3 mph2.1 kmh 29.84 in1010.5 mb 0.00 in0.0 mm 0.00 in0.0 mm 0.06 in1.5 mm
08:10 PM 28.2°F-2.1°C 24.6°F-4.1°C 86% Calm Calm -- 29.85 in1010.8 mb 0.00 in0.0 mm 0.00 in0.0 mm 0.06 in1.5 mm
08:20 PM 28.2°F-2.1°C 24.8°F-4.0°C 87% Calm Calm -- 29.85 in1010.8 mb 0.00 in0.0 mm 0.00 in0.0 mm 0.06 in1.5 mm
08:30 PM 28.2°F-2.1°C 25.1°F-3.8°C 88% 4.6 mph SW7.4 kmh SW 13.0 mph20.9 kmh 29.86 in1011.2 mb 0.00 in0.0 mm 0.00 in0.0 mm 0.06 in1.5 mm
08:40 PM 28.0°F-2.2°C 24.9°F-3.9°C 88% 3.6 mph NNW5.8 kmh NNW 13.0 mph20.9 kmh 29.85 in1010.8 mb 0.00 in0.0 mm 0.00 in0.0 mm 0.06 in1.5 mm
08:50 PM 27.7°F-2.4°C 24.9°F-3.9°C 89% 1.3 mph NW2.1 kmh NW 3.1 mph5.0 kmh 29.86 in1011.2 mb 0.00 in0.0 mm 0.00 in0.0 mm 0.06 in1.5 mm
09:00 PM 27.7°F-2.4°C 25.1°F-3.8°C 90% 2.5 mph N4.0 kmh N 4.5 mph7.2 kmh 29.85 in1010.8 mb 0.00 in0.0 mm 0.00 in0.0 mm 0.06 in1.5 mm
09:10 PM 27.5°F-2.5°C 25.0°F-3.9°C 90% Calm Calm -- 29.85 in1010.8 mb 0.00 in0.0 mm 0.00 in0.0 mm 0.06 in1.5 mm
09:20 PM 27.3°F-2.6°C 24.8°F-4.0°C 90% 0.7 mph NNE1.1 kmh NNE 3.4 mph5.5 kmh 29.86 in1011.2 mb 0.00 in0.0 mm 0.00 in0.0 mm 0.06 in1.5 mm
09:30 PM 27.3°F-2.6°C 24.8°F-4.0°C 90% 0.4 mph NNW0.6 kmh NNW 2.2 mph3.5 kmh 29.86 in1011.2 mb 0.00 in0.0 mm 0.00 in0.0 mm 0.06 in1.5 mm
09:40 PM 27.3°F-2.6°C 24.8°F-4.0°C 90% 0.1 mph NNW0.2 kmh NNW 2.2 mph3.5 kmh 29.86 in1011.2 mb 0.00 in0.0 mm 0.00 in0.0 mm 0.06 in1.5 mm
09:50 PM 27.1°F-2.7°C 24.6°F-4.1°C 90% 0.7 mph SSE1.1 kmh SSE 2.0 mph3.2 kmh 29.86 in1011.2 mb 0.00 in0.0 mm 0.00 in0.0 mm 0.06 in1.5 mm
10:00 PM 27.1°F-2.7°C 24.6°F-4.1°C 90% 3.4 mph SW5.5 kmh SW 6.3 mph10.1 kmh 29.86 in1011.2 mb 0.00 in0.0 mm 0.00 in0.0 mm 0.06 in1.5 mm
10:10 PM 27.1°F-2.7°C 24.6°F-4.1°C 90% 2.3 mph N3.7 kmh N 6.9 mph11.1 kmh 29.86 in1011.2 mb 0.00 in0.0 mm 0.00 in0.0 mm 0.06 in1.5 mm
10:20 PM 27.3°F-2.6°C 24.8°F-4.0°C 90% 2.1 mph N3.4 kmh N 5.8 mph9.3 kmh 29.85 in1010.8 mb 0.00 in0.0 mm 0.00 in0.0 mm 0.06 in1.5 mm
10:30 PM 27.3°F-2.6°C 24.5°F-4.2°C 89% 1.0 mph NW1.6 kmh NW 4.5 mph7.2 kmh 29.86 in1011.2 mb 0.00 in0.0 mm 0.00 in0.0 mm 0.06 in1.5 mm
10:40 PM 27.5°F-2.5°C 24.4°F-4.2°C 88% 1.0 mph SE1.6 kmh SE 2.9 mph4.7 kmh 29.86 in1011.2 mb 0.00 in0.0 mm 0.00 in0.0 mm 0.06 in1.5 mm
10:50 PM 27.5°F-2.5°C 24.4°F-4.2°C 88% 0.3 mph W0.5 kmh W 2.9 mph4.7 kmh 29.86 in1011.2 mb 0.00 in0.0 mm 0.00 in0.0 mm 0.06 in1.5 mm
11:00 PM 27.7°F-2.4°C 24.3°F-4.3°C 87% Calm Calm -- 29.86 in1011.2 mb 0.00 in0.0 mm 0.00 in0.0 mm 0.06 in1.5 mm
11:10 PM 27.7°F-2.4°C 24.3°F-4.3°C 87% 0.6 mph WSW1.0 kmh WSW 6.3 mph10.1 kmh 29.85 in1010.8 mb 0.00 in0.0 mm 0.00 in0.0 mm 0.06 in1.5 mm
11:20 PM 27.5°F-2.5°C 24.1°F-4.4°C 87% 1.2 mph SW1.9 kmh SW 11.9 mph19.2 kmh 29.86 in1011.2 mb 0.00 in0.0 mm 0.00 in0.0 mm 0.06 in1.5 mm
11:30 PM 27.5°F-2.5°C 24.1°F-4.4°C 87% 7.5 mph SW12.1 kmh SW 11.9 mph19.2 kmh 29.85 in1010.8 mb 0.00 in0.0 mm 0.00 in0.0 mm 0.06 in1.5 mm
11:40 PM 27.3°F-2.6°C 24.2°F-4.3°C 88% 10.9 mph SSW17.5 kmh SSW 16.8 mph27.0 kmh 29.86 in1011.2 mb 0.00 in0.0 mm 0.00 in0.0 mm 0.06 in1.5 mm
11:50 PM 27.3°F-2.6°C 24.2°F-4.3°C 88% 6.8 mph S10.9 kmh S 11.2 mph18.0 kmh 29.86 in1011.2 mb 0.00 in0.0 mm 0.00 in0.0 mm 0.06 in1.5 mm